sensor_id;sensor_type;location;lat;lon;timestamp;temperature;humidity
44063;DHT22;29727;47.606;19.130;2022-09-28T05:54:26;12.30;77.90
44063;DHT22;29727;47.606;19.130;2022-09-28T05:56:51;12.40;78.70
44063;DHT22;29727;47.606;19.130;2022-09-28T05:59:17;12.40;79.20
44063;DHT22;29727;47.606;19.130;2022-09-28T06:01:42;12.40;79.50
44063;DHT22;29727;47.606;19.130;2022-09-28T06:04:08;12.40;79.70
44063;DHT22;29727;47.606;19.130;2022-09-28T06:06:34;12.40;79.50
44063;DHT22;29727;47.606;19.130;2022-09-28T06:09:01;12.40;79.70
44063;DHT22;29727;47.606;19.130;2022-09-28T06:11:26;12.50;80.00
44063;DHT22;29727;47.606;19.130;2022-09-28T06:13:53;12.50;80.30
44063;DHT22;29727;47.606;19.130;2022-09-28T06:16:20;12.50;80.40
44063;DHT22;29727;47.606;19.130;2022-09-28T06:18:45;12.60;79.50
44063;DHT22;29727;47.606;19.130;2022-09-28T06:21:12;12.60;80.10
44063;DHT22;29727;47.606;19.130;2022-09-28T06:23:37;12.60;79.60
44063;DHT22;29727;47.606;19.130;2022-09-28T06:26:03;12.70;79.50
44063;DHT22;29727;47.606;19.130;2022-09-28T06:28:29;12.70;79.60
44063;DHT22;29727;47.606;19.130;2022-09-28T06:30:55;12.70;79.10
44063;DHT22;29727;47.606;19.130;2022-09-28T06:33:23;12.80;76.20
44063;DHT22;29727;47.606;19.130;2022-09-28T06:35:50;12.80;76.70
44063;DHT22;29727;47.606;19.130;2022-09-28T06:38:17;12.90;76.40
44063;DHT22;29727;47.606;19.130;2022-09-28T06:40:43;12.90;75.40
44063;DHT22;29727;47.606;19.130;2022-09-28T06:43:11;13.00;75.30
44063;DHT22;29727;47.606;19.130;2022-09-28T06:45:39;13.10;74.60
44063;DHT22;29727;47.606;19.130;2022-09-28T06:48:06;13.10;74.50
44063;DHT22;29727;47.606;19.130;2022-09-28T06:50:35;13.20;74.50
44063;DHT22;29727;47.606;19.130;2022-09-28T06:53:02;13.20;72.50
44063;DHT22;29727;47.606;19.130;2022-09-28T06:55:28;13.30;72.70
44063;DHT22;29727;47.606;19.130;2022-09-28T06:57:58;13.30;73.00
44063;DHT22;29727;47.606;19.130;2022-09-28T07:00:25;13.40;72.90
44063;DHT22;29727;47.606;19.130;2022-09-28T07:02:51;13.50;71.30
44063;DHT22;29727;47.606;19.130;2022-09-28T07:05:17;13.50;70.80
44063;DHT22;29727;47.606;19.130;2022-09-28T07:07:43;13.70;70.90
44063;DHT22;29727;47.606;19.130;2022-09-28T07:10:12;13.70;69.90
44063;DHT22;29727;47.606;19.130;2022-09-28T07:12:37;13.80;70.60
44063;DHT22;29727;47.606;19.130;2022-09-28T07:15:05;13.90;70.70
44063;DHT22;29727;47.606;19.130;2022-09-28T07:17:31;13.90;71.10
44063;DHT22;29727;47.606;19.130;2022-09-28T07:19:59;14.00;68.00
44063;DHT22;29727;47.606;19.130;2022-09-28T07:22:25;14.10;68.30
44063;DHT22;29727;47.606;19.130;2022-09-28T07:24:50;14.20;69.10
44063;DHT22;29727;47.606;19.130;2022-09-28T07:27:16;14.20;69.90
44063;DHT22;29727;47.606;19.130;2022-09-28T07:29:42;14.30;70.80
44063;DHT22;29727;47.606;19.130;2022-09-28T07:32:07;14.40;71.30
44063;DHT22;29727;47.606;19.130;2022-09-28T07:34:33;14.50;71.30
44063;DHT22;29727;47.606;19.130;2022-09-28T07:37:11;14.50;70.60
44063;DHT22;29727;47.606;19.130;2022-09-28T07:39:37;14.60;69.70
44063;DHT22;29727;47.606;19.130;2022-09-28T07:42:22;14.70;69.50
44063;DHT22;29727;47.606;19.130;2022-09-28T07:44:48;14.80;68.90
44063;DHT22;29727;47.606;19.130;2022-09-28T07:47:13;14.90;68.30
44063;DHT22;29727;47.606;19.130;2022-09-28T07:49:39;14.90;69.40
44063;DHT22;29727;47.606;19.130;2022-09-28T07:52:04;15.00;69.40
44063;DHT22;29727;47.606;19.130;2022-09-28T07:54:30;15.10;70.40
44063;DHT22;29727;47.606;19.130;2022-09-28T07:56:56;15.10;70.70
44063;DHT22;29727;47.606;19.130;2022-09-28T07:59:22;15.20;68.30
44063;DHT22;29727;47.606;19.130;2022-09-28T08:01:47;15.30;70.40
44063;DHT22;29727;47.606;19.130;2022-09-28T08:04:16;15.40;67.40
44063;DHT22;29727;47.606;19.130;2022-09-28T08:06:42;15.50;67.10
44063;DHT22;29727;47.606;19.130;2022-09-28T08:09:08;15.50;67.60
44063;DHT22;29727;47.606;19.130;2022-09-28T08:11:34;15.60;68.20
44063;DHT22;29727;47.606;19.130;2022-09-28T08:14:00;15.70;66.90
44063;DHT22;29727;47.606;19.130;2022-09-28T08:16:27;15.80;66.00
44063;DHT22;29727;47.606;19.130;2022-09-28T08:18:52;15.90;64.60
44063;DHT22;29727;47.606;19.130;2022-09-28T08:21:19;16.00;65.60
44063;DHT22;29727;47.606;19.130;2022-09-28T08:24:07;16.10;64.30
44063;DHT22;29727;47.606;19.130;2022-09-28T08:26:33;16.10;63.90
44063;DHT22;29727;47.606;19.130;2022-09-28T08:28:59;16.20;65.70
44063;DHT22;29727;47.606;19.130;2022-09-28T08:31:24;16.30;65.70
44063;DHT22;29727;47.606;19.130;2022-09-28T08:33:50;16.30;64.40
44063;DHT22;29727;47.606;19.130;2022-09-28T08:36:18;16.40;64.50
44063;DHT22;29727;47.606;19.130;2022-09-28T08:38:45;16.50;63.20
44063;DHT22;29727;47.606;19.130;2022-09-28T08:46:45;16.70;63.80
44063;DHT22;29727;47.606;19.130;2022-09-28T08:49:16;16.80;66.20
44063;DHT22;29727;47.606;19.130;2022-09-28T08:51:53;16.90;63.10
44063;DHT22;29727;47.606;19.130;2022-09-28T08:54:34;17.00;64.40
44063;DHT22;29727;47.606;19.130;2022-09-28T08:59:45;17.20;64.50
44063;DHT22;29727;47.606;19.130;2022-09-28T09:04:50;17.40;63.50
44063;DHT22;29727;47.606;19.130;2022-09-28T09:07:33;17.50;63.20
44063;DHT22;29727;47.606;19.130;2022-09-28T09:10:17;17.50;62.70
44063;DHT22;29727;47.606;19.130;2022-09-28T09:13:01;17.60;65.10
44063;DHT22;29727;47.606;19.130;2022-09-28T09:18:53;17.80;62.00
44063;DHT22;29727;47.606;19.130;2022-09-28T09:21:40;17.80;62.40
44063;DHT22;29727;47.606;19.130;2022-09-28T09:24:50;17.90;62.30
44063;DHT22;29727;47.606;19.130;2022-09-28T09:30:07;17.90;63.20
44063;DHT22;29727;47.606;19.130;2022-09-28T09:35:47;18.00;62.20
44063;DHT22;29727;47.606;19.130;2022-09-28T09:47:10;18.40;60.00
44063;DHT22;29727;47.606;19.130;2022-09-28T09:52:27;18.40;59.90
44063;DHT22;29727;47.606;19.130;2022-09-28T09:54:57;18.50;60.10
44063;DHT22;29727;47.606;19.130;2022-09-28T09:57:29;18.50;59.60
44063;DHT22;29727;47.606;19.130;2022-09-28T09:59:57;18.60;61.60
44063;DHT22;29727;47.606;19.130;2022-09-28T10:02:30;18.70;59.70
44063;DHT22;29727;47.606;19.130;2022-09-28T10:10:28;18.80;59.80
44063;DHT22;29727;47.606;19.130;2022-09-28T10:12:55;19.00;60.30
44063;DHT22;29727;47.606;19.130;2022-09-28T10:15:26;19.00;59.30
44063;DHT22;29727;47.606;19.130;2022-09-28T10:17:54;19.20;57.80
44063;DHT22;29727;47.606;19.130;2022-09-28T10:20:21;19.20;57.40
44063;DHT22;29727;47.606;19.130;2022-09-28T10:22:50;19.20;59.00
44063;DHT22;29727;47.606;19.130;2022-09-28T10:25:17;19.30;58.40
44063;DHT22;29727;47.606;19.130;2022-09-28T10:27:44;19.30;56.80
44063;DHT22;29727;47.606;19.130;2022-09-28T10:30:22;19.30;57.70
44063;DHT22;29727;47.606;19.130;2022-09-28T10:32:50;19.30;57.10
44063;DHT22;29727;47.606;19.130;2022-09-28T10:37:59;19.20;59.60
44063;DHT22;29727;47.606;19.130;2022-09-28T10:40:32;19.20;57.30
44063;DHT22;29727;47.606;19.130;2022-09-28T10:43:15;19.30;57.40
44063;DHT22;29727;47.606;19.130;2022-09-28T10:45:42;19.20;58.60
44063;DHT22;29727;47.606;19.130;2022-09-28T10:48:18;19.20;58.10
44063;DHT22;29727;47.606;19.130;2022-09-28T10:51:18;19.20;59.70
44063;DHT22;29727;47.606;19.130;2022-09-28T10:54:01;19.20;59.20
44063;DHT22;29727;47.606;19.130;2022-09-28T10:56:29;19.30;58.40
44063;DHT22;29727;47.606;19.130;2022-09-28T10:58:59;19.30;57.70
44063;DHT22;29727;47.606;19.130;2022-09-28T11:01:29;19.30;58.20
44063;DHT22;29727;47.606;19.130;2022-09-28T11:04:00;19.20;59.60
44063;DHT22;29727;47.606;19.130;2022-09-28T11:06:37;19.20;57.50
44063;DHT22;29727;47.606;19.130;2022-09-28T11:09:19;19.30;57.70
44063;DHT22;29727;47.606;19.130;2022-09-28T11:11:47;19.30;57.40
44063;DHT22;29727;47.606;19.130;2022-09-28T11:14:31;19.30;56.50
44063;DHT22;29727;47.606;19.130;2022-09-28T11:19:46;19.30;57.40
44063;DHT22;29727;47.606;19.130;2022-09-28T11:22:20;19.40;58.50
44063;DHT22;29727;47.606;19.130;2022-09-28T11:24:47;19.40;56.70
44063;DHT22;29727;47.606;19.130;2022-09-28T11:27:22;19.50;56.60
44063;DHT22;29727;47.606;19.130;2022-09-28T11:29:57;19.50;57.20
44063;DHT22;29727;47.606;19.130;2022-09-28T11:32:31;19.50;56.60
44063;DHT22;29727;47.606;19.130;2022-09-28T11:35:04;19.50;57.20
44063;DHT22;29727;47.606;19.130;2022-09-28T11:48:16;19.50;58.40
44063;DHT22;29727;47.606;19.130;2022-09-28T11:51:31;19.50;58.60
44063;DHT22;29727;47.606;19.130;2022-09-28T11:53:39;19.50;58.90
44063;DHT22;29727;47.606;19.130;2022-09-28T11:59:04;19.50;58.20
44063;DHT22;29727;47.606;19.130;2022-09-28T12:01:51;19.60;56.90
44063;DHT22;29727;47.606;19.130;2022-09-28T12:04:41;19.60;55.90
44063;DHT22;29727;47.606;19.130;2022-09-28T12:09:41;19.80;55.50
44063;DHT22;29727;47.606;19.130;2022-09-28T12:12:24;19.80;55.40
44063;DHT22;29727;47.606;19.130;2022-09-28T12:14:54;19.90;55.30
44063;DHT22;29727;47.606;19.130;2022-09-28T12:17:27;19.80;54.90
44063;DHT22;29727;47.606;19.130;2022-09-28T12:25:23;19.90;56.30
44063;DHT22;29727;47.606;19.130;2022-09-28T12:28:04;20.00;55.60
44063;DHT22;29727;47.606;19.130;2022-09-28T12:30:34;20.10;54.10
44063;DHT22;29727;47.606;19.130;2022-09-28T12:33:07;20.10;56.20
44063;DHT22;29727;47.606;19.130;2022-09-28T12:46:24;20.50;53.40
44063;DHT22;29727;47.606;19.130;2022-09-28T12:49:31;20.60;54.20
44063;DHT22;29727;47.606;19.130;2022-09-28T13:10:35;20.80;52.90
44063;DHT22;29727;47.606;19.130;2022-09-28T13:15:55;20.80;52.20
44063;DHT22;29727;47.606;19.130;2022-09-28T13:18:32;20.80;49.70
44063;DHT22;29727;47.606;19.130;2022-09-28T13:21:13;20.80;49.70
44063;DHT22;29727;47.606;19.130;2022-09-28T13:23:45;20.70;50.20
44063;DHT22;29727;47.606;19.130;2022-09-28T13:26:21;20.60;51.00
44063;DHT22;29727;47.606;19.130;2022-09-28T13:28:51;20.60;51.30
44063;DHT22;29727;47.606;19.130;2022-09-28T13:31:24;20.70;52.00
44063;DHT22;29727;47.606;19.130;2022-09-28T13:33:57;20.70;50.40
44063;DHT22;29727;47.606;19.130;2022-09-28T13:38:58;20.60;51.40
44063;DHT22;29727;47.606;19.130;2022-09-28T13:41:38;20.60;51.80
44063;DHT22;29727;47.606;19.130;2022-09-28T13:57:57;20.20;51.80
44063;DHT22;29727;47.606;19.130;2022-09-28T14:04:50;20.00;52.20
44063;DHT22;29727;47.606;19.130;2022-09-28T14:06:36;19.90;52.80
44063;DHT22;29727;47.606;19.130;2022-09-28T14:12:15;19.80;51.70
44063;DHT22;29727;47.606;19.130;2022-09-28T14:14:49;19.70;51.90
44063;DHT22;29727;47.606;19.130;2022-09-28T14:19:58;19.50;52.30
44063;DHT22;29727;47.606;19.130;2022-09-28T14:35:53;19.20;53.80
44063;DHT22;29727;47.606;19.130;2022-09-28T14:38:33;19.20;54.30
44063;DHT22;29727;47.606;19.130;2022-09-28T14:46:36;19.20;55.00
44063;DHT22;29727;47.606;19.130;2022-09-28T14:54:26;19.20;55.20
44063;DHT22;29727;47.606;19.130;2022-09-28T14:59:24;19.30;55.10
44063;DHT22;29727;47.606;19.130;2022-09-28T15:01:56;19.30;54.30
44063;DHT22;29727;47.606;19.130;2022-09-28T15:04:25;19.30;54.40
44063;DHT22;29727;47.606;19.130;2022-09-28T15:06:52;19.30;55.20
44063;DHT22;29727;47.606;19.130;2022-09-28T15:09:35;19.20;54.20
44063;DHT22;29727;47.606;19.130;2022-09-28T15:12:28;19.30;56.30
44063;DHT22;29727;47.606;19.130;2022-09-28T15:14:58;19.30;55.20
44063;DHT22;29727;47.606;19.130;2022-09-28T15:17:32;19.20;54.20
44063;DHT22;29727;47.606;19.130;2022-09-28T15:22:47;19.20;54.30
44063;DHT22;29727;47.606;19.130;2022-09-28T15:25:19;19.10;55.60
44063;DHT22;29727;47.606;19.130;2022-09-28T15:27:50;19.10;55.60
44063;DHT22;29727;47.606;19.130;2022-09-28T15:30:33;19.10;55.30
44063;DHT22;29727;47.606;19.130;2022-09-28T15:33:00;19.10;55.90
44063;DHT22;29727;47.606;19.130;2022-09-28T15:35:56;19.10;56.60
44063;DHT22;29727;47.606;19.130;2022-09-28T15:38:23;19.20;55.30
44063;DHT22;29727;47.606;19.130;2022-09-28T15:40:49;19.20;55.30
44063;DHT22;29727;47.606;19.130;2022-09-28T15:43:27;19.20;55.10
44063;DHT22;29727;47.606;19.130;2022-09-28T15:48:50;19.10;55.80
44063;DHT22;29727;47.606;19.130;2022-09-28T15:51:22;19.10;55.70
44063;DHT22;29727;47.606;19.130;2022-09-28T15:53:58;19.10;55.60
44063;DHT22;29727;47.606;19.130;2022-09-28T15:56:25;19.10;56.20
44063;DHT22;29727;47.606;19.130;2022-09-28T15:59:32;19.00;56.80
44063;DHT22;29727;47.606;19.130;2022-09-28T16:04:44;19.00;57.20
44063;DHT22;29727;47.606;19.130;2022-09-28T16:12:46;18.90;57.50
44063;DHT22;29727;47.606;19.130;2022-09-28T16:15:20;18.90;58.10
44063;DHT22;29727;47.606;19.130;2022-09-28T16:20:31;18.80;57.60
44063;DHT22;29727;47.606;19.130;2022-09-28T16:23:06;18.80;57.50
44063;DHT22;29727;47.606;19.130;2022-09-28T16:25:35;18.80;58.20
44063;DHT22;29727;47.606;19.130;2022-09-28T16:28:02;18.80;58.10
44063;DHT22;29727;47.606;19.130;2022-09-28T16:30:31;18.70;57.70
44063;DHT22;29727;47.606;19.130;2022-09-28T16:32:59;18.70;57.70
44063;DHT22;29727;47.606;19.130;2022-09-28T16:35:29;18.70;58.20
44063;DHT22;29727;47.606;19.130;2022-09-28T16:38:21;18.70;58.90
44063;DHT22;29727;47.606;19.130;2022-09-28T16:40:50;18.60;58.90
44063;DHT22;29727;47.606;19.130;2022-09-28T16:46:04;18.60;59.50
44063;DHT22;29727;47.606;19.130;2022-09-28T16:48:32;18.60;59.80
44063;DHT22;29727;47.606;19.130;2022-09-28T16:50:59;18.60;59.90
44063;DHT22;29727;47.606;19.130;2022-09-28T16:53:25;18.50;61.10
44063;DHT22;29727;47.606;19.130;2022-09-28T16:56:09;18.50;60.70
